sensor_id;sensor_type;location;lat;lon;timestamp;pressure;altitude;pressure_sealevel;temperature;humidity
18022;BME280;9136;48.822;7.966;2023-09-08T00:02:47;100332.75;;;18.66;100.00
18022;BME280;9136;48.822;7.966;2023-09-08T00:05:37;100329.47;;;18.60;100.00
18022;BME280;9136;48.822;7.966;2023-09-08T00:08:28;100321.69;;;18.57;100.00
18022;BME280;9136;48.822;7.966;2023-09-08T00:11:19;100339.28;;;18.60;100.00
18022;BME280;9136;48.822;7.966;2023-09-08T00:14:07;100330.91;;;18.52;100.00
18022;BME280;9136;48.822;7.966;2023-09-08T00:16:56;100331.88;;;18.51;100.00
18022;BME280;9136;48.822;7.966;2023-09-08T00:19:48;100336.44;;;18.49;100.00
18022;BME280;9136;48.822;7.966;2023-09-08T00:22:37;100319.25;;;18.40;100.00
18022;BME280;9136;48.822;7.966;2023-09-08T00:25:25;100336.81;;;18.43;100.00
18022;BME280;9136;48.822;7.966;2023-09-08T00:28:15;100335.78;;;18.31;100.00
18022;BME280;9136;48.822;7.966;2023-09-08T00:31:05;100327.44;;;18.23;100.00
18022;BME280;9136;48.822;7.966;2023-09-08T00:34:01;100324.88;;;18.21;100.00
18022;BME280;9136;48.822;7.966;2023-09-08T00:36:49;100324.59;;;18.12;100.00
18022;BME280;9136;48.822;7.966;2023-09-08T00:39:39;100337.72;;;18.15;100.00
18022;BME280;9136;48.822;7.966;2023-09-08T00:42:29;100323.38;;;18.03;100.00
18022;BME280;9136;48.822;7.966;2023-09-08T00:45:19;100322.91;;;17.96;100.00
18022;BME280;9136;48.822;7.966;2023-09-08T00:48:09;100308.28;;;17.89;100.00
18022;BME280;9136;48.822;7.966;2023-09-08T00:50:58;100304.78;;;17.89;100.00
18022;BME280;9136;48.822;7.966;2023-09-08T00:53:51;100329.53;;;18.03;100.00
18022;BME280;9136;48.822;7.966;2023-09-08T00:56:44;100329.63;;;18.02;100.00
18022;BME280;9136;48.822;7.966;2023-09-08T00:59:35;100314.44;;;17.90;100.00
18022;BME280;9136;48.822;7.966;2023-09-08T01:02:29;100328.13;;;17.98;100.00
18022;BME280;9136;48.822;7.966;2023-09-08T01:05:21;100328.28;;;17.95;100.00
18022;BME280;9136;48.822;7.966;2023-09-08T01:08:09;100321.78;;;17.86;100.00
18022;BME280;9136;48.822;7.966;2023-09-08T01:11:21;100333.16;;;17.88;100.00
18022;BME280;9136;48.822;7.966;2023-09-08T01:14:17;100312.81;;;17.73;100.00
18022;BME280;9136;48.822;7.966;2023-09-08T01:17:09;100300.75;;;17.67;100.00
18022;BME280;9136;48.822;7.966;2023-09-08T01:20:09;100300.06;;;17.64;100.00
18022;BME280;9136;48.822;7.966;2023-09-08T01:23:18;100306.84;;;17.69;100.00
18022;BME280;9136;48.822;7.966;2023-09-08T01:26:16;100311.22;;;17.70;100.00
18022;BME280;9136;48.822;7.966;2023-09-08T01:29:08;100320.13;;;17.69;100.00
18022;BME280;9136;48.822;7.966;2023-09-08T01:31:57;100320.88;;;17.71;100.00
18022;BME280;9136;48.822;7.966;2023-09-08T01:34:53;100318.22;;;17.71;100.00
18022;BME280;9136;48.822;7.966;2023-09-08T01:37:41;100322.84;;;17.68;100.00
18022;BME280;9136;48.822;7.966;2023-09-08T01:40:31;100318.66;;;17.64;100.00
18022;BME280;9136;48.822;7.966;2023-09-08T01:43:21;100322.94;;;17.66;100.00
18022;BME280;9136;48.822;7.966;2023-09-08T01:46:12;100304.81;;;17.59;100.00
18022;BME280;9136;48.822;7.966;2023-09-08T01:49:16;100322.94;;;17.66;100.00
18022;BME280;9136;48.822;7.966;2023-09-08T01:52:08;100301.56;;;17.54;100.00
18022;BME280;9136;48.822;7.966;2023-09-08T01:54:57;100299.28;;;17.48;100.00
18022;BME280;9136;48.822;7.966;2023-09-08T01:57:45;100306.56;;;17.44;100.00
18022;BME280;9136;48.822;7.966;2023-09-08T02:00:35;100310.06;;;17.44;100.00
18022;BME280;9136;48.822;7.966;2023-09-08T02:03:25;100311.88;;;17.44;100.00
18022;BME280;9136;48.822;7.966;2023-09-08T02:06:13;100307.31;;;17.32;100.00
18022;BME280;9136;48.822;7.966;2023-09-08T02:09:03;100300.72;;;17.23;100.00
18022;BME280;9136;48.822;7.966;2023-09-08T02:11:51;100311.94;;;17.28;100.00
18022;BME280;9136;48.822;7.966;2023-09-08T02:14:49;100327.03;;;17.28;100.00
18022;BME280;9136;48.822;7.966;2023-09-08T02:17:39;100319.59;;;17.19;100.00
18022;BME280;9136;48.822;7.966;2023-09-08T02:20:27;100308.91;;;17.04;100.00
18022;BME280;9136;48.822;7.966;2023-09-08T02:23:15;100328.56;;;17.16;100.00
18022;BME280;9136;48.822;7.966;2023-09-08T02:26:03;100311.22;;;17.10;100.00
18022;BME280;9136;48.822;7.966;2023-09-08T02:28:51;100309.25;;;16.98;100.00
18022;BME280;9136;48.822;7.966;2023-09-08T02:31:41;100322.38;;;17.01;100.00
18022;BME280;9136;48.822;7.966;2023-09-08T02:34:34;100320.25;;;16.92;100.00
18022;BME280;9136;48.822;7.966;2023-09-08T02:37:22;100306.56;;;16.84;100.00
18022;BME280;9136;48.822;7.966;2023-09-08T02:40:10;100312.06;;;16.81;100.00
18022;BME280;9136;48.822;7.966;2023-09-08T02:43:10;100334.63;;;16.88;100.00
18022;BME280;9136;48.822;7.966;2023-09-08T02:46:01;100317.69;;;16.75;100.00
18022;BME280;9136;48.822;7.966;2023-09-08T02:48:53;100320.75;;;16.67;100.00
18022;BME280;9136;48.822;7.966;2023-09-08T02:51:45;100344.91;;;16.78;100.00
18022;BME280;9136;48.822;7.966;2023-09-08T02:54:32;100339.56;;;16.63;100.00
18022;BME280;9136;48.822;7.966;2023-09-08T02:57:27;100348.56;;;16.60;100.00
18022;BME280;9136;48.822;7.966;2023-09-08T03:00:16;100348.47;;;16.62;100.00
18022;BME280;9136;48.822;7.966;2023-09-08T03:03:04;100340.19;;;16.52;100.00
18022;BME280;9136;48.822;7.966;2023-09-08T03:05:53;100327.34;;;16.44;100.00
18022;BME280;9136;48.822;7.966;2023-09-08T03:08:46;100325.88;;;16.39;100.00
18022;BME280;9136;48.822;7.966;2023-09-08T03:11:34;100346.66;;;16.46;100.00
18022;BME280;9136;48.822;7.966;2023-09-08T03:14:27;100348.22;;;16.50;100.00
18022;BME280;9136;48.822;7.966;2023-09-08T03:17:16;100334.44;;;16.44;100.00
18022;BME280;9136;48.822;7.966;2023-09-08T03:20:05;100347.97;;;16.55;100.00
18022;BME280;9136;48.822;7.966;2023-09-08T03:22:56;100356.25;;;16.49;100.00
18022;BME280;9136;48.822;7.966;2023-09-08T03:25:48;100360.44;;;16.53;100.00
18022;BME280;9136;48.822;7.966;2023-09-08T03:28:38;100365.84;;;16.51;100.00
18022;BME280;9136;48.822;7.966;2023-09-08T03:31:27;100367.28;;;16.41;100.00
18022;BME280;9136;48.822;7.966;2023-09-08T03:34:21;100361.38;;;16.36;100.00
18022;BME280;9136;48.822;7.966;2023-09-08T03:37:11;100343.47;;;16.24;100.00
18022;BME280;9136;48.822;7.966;2023-09-08T03:40:01;100367.25;;;16.25;100.00
18022;BME280;9136;48.822;7.966;2023-09-08T03:42:53;100357.06;;;16.18;100.00
18022;BME280;9136;48.822;7.966;2023-09-08T03:45:41;100341.56;;;16.10;100.00
18022;BME280;9136;48.822;7.966;2023-09-08T03:48:30;100355.53;;;16.14;100.00
18022;BME280;9136;48.822;7.966;2023-09-08T03:51:18;100356.19;;;16.17;100.00
18022;BME280;9136;48.822;7.966;2023-09-08T03:54:07;100356.47;;;16.13;100.00
18022;BME280;9136;48.822;7.966;2023-09-08T03:56:59;100349.50;;;16.10;100.00
18022;BME280;9136;48.822;7.966;2023-09-08T03:59:51;100353.81;;;16.13;100.00
18022;BME280;9136;48.822;7.966;2023-09-08T04:02:39;100343.69;;;16.03;100.00
18022;BME280;9136;48.822;7.966;2023-09-08T04:05:30;100351.03;;;15.98;100.00
18022;BME280;9136;48.822;7.966;2023-09-08T04:08:19;100363.25;;;16.01;100.00
18022;BME280;9136;48.822;7.966;2023-09-08T04:11:07;100368.78;;;15.96;100.00
18022;BME280;9136;48.822;7.966;2023-09-08T04:13:58;100370.50;;;15.97;100.00
18022;BME280;9136;48.822;7.966;2023-09-08T04:16:58;100360.66;;;15.84;100.00
18022;BME280;9136;48.822;7.966;2023-09-08T04:19:47;100352.06;;;15.79;100.00
18022;BME280;9136;48.822;7.966;2023-09-08T04:22:38;100366.88;;;15.83;100.00
18022;BME280;9136;48.822;7.966;2023-09-08T04:25:26;100371.00;;;15.88;100.00
18022;BME280;9136;48.822;7.966;2023-09-08T04:28:15;100379.63;;;15.92;100.00
18022;BME280;9136;48.822;7.966;2023-09-08T04:31:03;100356.50;;;15.78;100.00
18022;BME280;9136;48.822;7.966;2023-09-08T04:34:00;100349.66;;;15.74;100.00
18022;BME280;9136;48.822;7.966;2023-09-08T04:36:48;100362.75;;;15.77;100.00
18022;BME280;9136;48.822;7.966;2023-09-08T04:39:39;100374.13;;;15.79;100.00
18022;BME280;9136;48.822;7.966;2023-09-08T04:42:29;100379.88;;;15.70;100.00
18022;BME280;9136;48.822;7.966;2023-09-08T04:45:20;100369.47;;;15.67;100.00
18022;BME280;9136;48.822;7.966;2023-09-08T04:48:11;100386.13;;;15.69;100.00
18022;BME280;9136;48.822;7.966;2023-09-08T04:51:01;100383.72;;;15.64;100.00
18022;BME280;9136;48.822;7.966;2023-09-08T04:53:51;100385.94;;;15.55;100.00
18022;BME280;9136;48.822;7.966;2023-09-08T04:56:39;100399.41;;;15.50;100.00
18022;BME280;9136;48.822;7.966;2023-09-08T04:59:28;100369.28;;;15.35;100.00
18022;BME280;9136;48.822;7.966;2023-09-08T05:02:17;100388.72;;;15.52;100.00
18022;BME280;9136;48.822;7.966;2023-09-08T05:05:08;100392.66;;;15.62;100.00
18022;BME280;9136;48.822;7.966;2023-09-08T05:08:00;100399.78;;;15.60;100.00
18022;BME280;9136;48.822;7.966;2023-09-08T05:10:51;100386.41;;;15.63;100.00
18022;BME280;9136;48.822;7.966;2023-09-08T05:13:41;100386.97;;;15.69;100.00
18022;BME280;9136;48.822;7.966;2023-09-08T05:16:29;100379.75;;;15.73;100.00
18022;BME280;9136;48.822;7.966;2023-09-08T05:19:27;100392.91;;;15.74;100.00
18022;BME280;9136;48.822;7.966;2023-09-08T05:22:17;100377.47;;;15.65;100.00
18022;BME280;9136;48.822;7.966;2023-09-08T05:25:07;100390.47;;;15.70;100.00
18022;BME280;9136;48.822;7.966;2023-09-08T05:27:58;100403.72;;;15.87;100.00
18022;BME280;9136;48.822;7.966;2023-09-08T05:30:52;100386.59;;;15.77;100.00
18022;BME280;9136;48.822;7.966;2023-09-08T05:33:41;100379.81;;;15.71;100.00
18022;BME280;9136;48.822;7.966;2023-09-08T05:36:32;100394.22;;;15.83;100.00
18022;BME280;9136;48.822;7.966;2023-09-08T05:39:22;100391.31;;;15.88;100.00
18022;BME280;9136;48.822;7.966;2023-09-08T05:42:16;100390.84;;;15.97;100.00
18022;BME280;9136;48.822;7.966;2023-09-08T05:45:07;100404.78;;;16.00;100.00
18022;BME280;9136;48.822;7.966;2023-09-08T05:47:55;100406.34;;;16.05;100.00
18022;BME280;9136;48.822;7.966;2023-09-08T05:50:56;100410.22;;;16.15;100.00
18022;BME280;9136;48.822;7.966;2023-09-08T05:53:45;100408.13;;;16.21;100.00
18022;BME280;9136;48.822;7.966;2023-09-08T05:56:36;100411.28;;;16.28;100.00
18022;BME280;9136;48.822;7.966;2023-09-08T05:59:40;100409.75;;;16.24;100.00
18022;BME280;9136;48.822;7.966;2023-09-08T06:02:31;100421.56;;;16.34;100.00
18022;BME280;9136;48.822;7.966;2023-09-08T06:05:20;100428.09;;;16.44;100.00
18022;BME280;9136;48.822;7.966;2023-09-08T06:08:08;100406.25;;;16.39;100.00
18022;BME280;9136;48.822;7.966;2023-09-08T06:10:59;100429.50;;;16.51;100.00
18022;BME280;9136;48.822;7.966;2023-09-08T06:13:50;100421.88;;;16.61;100.00
18022;BME280;9136;48.822;7.966;2023-09-08T06:16:42;100433.94;;;16.67;100.00
18022;BME280;9136;48.822;7.966;2023-09-08T06:19:40;100421.19;;;16.57;100.00
18022;BME280;9136;48.822;7.966;2023-09-08T06:22:31;100422.09;;;16.74;100.00
18022;BME280;9136;48.822;7.966;2023-09-08T06:25:20;100439.31;;;16.98;100.00
18022;BME280;9136;48.822;7.966;2023-09-08T06:28:11;100427.69;;;17.01;100.00
18022;BME280;9136;48.822;7.966;2023-09-08T06:31:26;100429.97;;;17.07;100.00
18022;BME280;9136;48.822;7.966;2023-09-08T06:34:19;100429.72;;;17.11;100.00
18022;BME280;9136;48.822;7.966;2023-09-08T06:37:15;100432.63;;;17.23;100.00
18022;BME280;9136;48.822;7.966;2023-09-08T06:40:10;100420.31;;;17.22;100.00
18022;BME280;9136;48.822;7.966;2023-09-08T06:43:06;100431.06;;;17.34;100.00
18022;BME280;9136;48.822;7.966;2023-09-08T06:46:06;100438.84;;;17.53;100.00
18022;BME280;9136;48.822;7.966;2023-09-08T06:48:54;100435.13;;;17.56;100.00
18022;BME280;9136;48.822;7.966;2023-09-08T06:51:45;100444.06;;;17.70;100.00
18022;BME280;9136;48.822;7.966;2023-09-08T06:54:39;100425.38;;;17.72;100.00
18022;BME280;9136;48.822;7.966;2023-09-08T06:57:37;100442.13;;;17.88;100.00
18022;BME280;9136;48.822;7.966;2023-09-08T07:00:29;100435.50;;;17.95;100.00
18022;BME280;9136;48.822;7.966;2023-09-08T07:03:17;100419.34;;;17.98;100.00
18022;BME280;9136;48.822;7.966;2023-09-08T07:06:07;100448.22;;;18.05;100.00
18022;BME280;9136;48.822;7.966;2023-09-08T07:08:59;100456.97;;;18.21;100.00
18022;BME280;9136;48.822;7.966;2023-09-08T07:11:49;100441.16;;;18.34;100.00
18022;BME280;9136;48.822;7.966;2023-09-08T07:14:42;100445.72;;;18.46;100.00
18022;BME280;9136;48.822;7.966;2023-09-08T07:17:32;100438.09;;;18.40;100.00
18022;BME280;9136;48.822;7.966;2023-09-08T07:20:21;100446.56;;;18.46;100.00
18022;BME280;9136;48.822;7.966;2023-09-08T07:23:15;100444.38;;;18.53;100.00
18022;BME280;9136;48.822;7.966;2023-09-08T07:26:15;100433.94;;;18.64;100.00
18022;BME280;9136;48.822;7.966;2023-09-08T07:29:04;100425.78;;;18.67;100.00
18022;BME280;9136;48.822;7.966;2023-09-08T07:31:53;100433.72;;;18.81;100.00
18022;BME280;9136;48.822;7.966;2023-09-08T07:34:41;100444.56;;;18.93;100.00
18022;BME280;9136;48.822;7.966;2023-09-08T07:37:29;100444.16;;;19.13;100.00
18022;BME280;9136;48.822;7.966;2023-09-08T07:40:17;100434.34;;;19.13;100.00
18022;BME280;9136;48.822;7.966;2023-09-08T07:43:07;100444.84;;;19.29;100.00
18022;BME280;9136;48.822;7.966;2023-09-08T07:46:01;100459.72;;;19.46;100.00
18022;BME280;9136;48.822;7.966;2023-09-08T07:48:53;100449.06;;;19.46;100.00
18022;BME280;9136;48.822;7.966;2023-09-08T07:51:44;100443.91;;;19.57;100.00
18022;BME280;9136;48.822;7.966;2023-09-08T07:54:32;100432.34;;;19.71;100.00
18022;BME280;9136;48.822;7.966;2023-09-08T07:57:23;100438.25;;;19.89;100.00
18022;BME280;9136;48.822;7.966;2023-09-08T08:00:13;100427.88;;;19.97;100.00
18022;BME280;9136;48.822;7.966;2023-09-08T08:03:01;100451.72;;;20.25;100.00
18022;BME280;9136;48.822;7.966;2023-09-08T08:05:54;100447.66;;;20.33;100.00
18022;BME280;9136;48.822;7.966;2023-09-08T08:08:44;100439.69;;;20.45;100.00
18022;BME280;9136;48.822;7.966;2023-09-08T08:11:43;100426.97;;;20.62;100.00
18022;BME280;9136;48.822;7.966;2023-09-08T08:14:45;100448.06;;;20.90;100.00
18022;BME280;9136;48.822;7.966;2023-09-08T08:17:34;100444.78;;;21.10;100.00
18022;BME280;9136;48.822;7.966;2023-09-08T08:20:22;100436.94;;;21.20;100.00
18022;BME280;9136;48.822;7.966;2023-09-08T08:23:14;100444.09;;;21.32;100.00
18022;BME280;9136;48.822;7.966;2023-09-08T08:26:04;100438.91;;;21.42;100.00
18022;BME280;9136;48.822;7.966;2023-09-08T08:28:54;100437.63;;;21.48;100.00
18022;BME280;9136;48.822;7.966;2023-09-08T08:31:42;100447.28;;;21.61;100.00
18022;BME280;9136;48.822;7.966;2023-09-08T08:34:48;100437.69;;;21.70;100.00
18022;BME280;9136;48.822;7.966;2023-09-08T08:37:39;100434.19;;;21.69;100.00
18022;BME280;9136;48.822;7.966;2023-09-08T08:40:27;100432.47;;;21.68;100.00
18022;BME280;9136;48.822;7.966;2023-09-08T08:43:16;100443.03;;;21.94;100.00
18022;BME280;9136;48.822;7.966;2023-09-08T08:46:09;100438.84;;;22.14;100.00
18022;BME280;9136;48.822;7.966;2023-09-08T08:49:04;100434.03;;;22.30;100.00
18022;BME280;9136;48.822;7.966;2023-09-08T08:51:54;100442.41;;;22.48;100.00
18022;BME280;9136;48.822;7.966;2023-09-08T08:54:44;100442.78;;;22.66;100.00
18022;BME280;9136;48.822;7.966;2023-09-08T08:57:36;100447.28;;;22.76;100.00
18022;BME280;9136;48.822;7.966;2023-09-08T09:00:24;100433.78;;;22.78;100.00
18022;BME280;9136;48.822;7.966;2023-09-08T09:03:16;100422.97;;;22.91;100.00
18022;BME280;9136;48.822;7.966;2023-09-08T09:06:06;100424.38;;;23.06;100.00
18022;BME280;9136;48.822;7.966;2023-09-08T09:08:58;100437.53;;;23.09;100.00
18022;BME280;9136;48.822;7.966;2023-09-08T09:11:50;100428.13;;;23.14;100.00
18022;BME280;9136;48.822;7.966;2023-09-08T09:14:46;100442.72;;;23.33;100.00
18022;BME280;9136;48.822;7.966;2023-09-08T09:17:35;100431.09;;;23.43;100.00
18022;BME280;9136;48.822;7.966;2023-09-08T09:20:25;100435.81;;;23.62;100.00
18022;BME280;9136;48.822;7.966;2023-09-08T09:23:26;100436.41;;;23.66;100.00
18022;BME280;9136;48.822;7.966;2023-09-08T09:26:25;100436.03;;;23.91;100.00
18022;BME280;9136;48.822;7.966;2023-09-08T09:29:13;100449.13;;;24.06;100.00
18022;BME280;9136;48.822;7.966;2023-09-08T09:32:04;100429.22;;;24.08;100.00
18022;BME280;9136;48.822;7.966;2023-09-08T09:34:54;100433.59;;;24.30;100.00
18022;BME280;9136;48.822;7.966;2023-09-08T09:37:43;100402.13;;;24.32;100.00
18022;BME280;9136;48.822;7.966;2023-09-08T09:40:31;100436.59;;;24.58;100.00
18022;BME280;9136;48.822;7.966;2023-09-08T09:43:21;100436.63;;;24.67;100.00
18022;BME280;9136;48.822;7.966;2023-09-08T09:46:10;100428.03;;;24.73;100.00
18022;BME280;9136;48.822;7.966;2023-09-08T09:48:58;100409.47;;;24.70;100.00
18022;BME280;9136;48.822;7.966;2023-09-08T09:51:52;100429.84;;;25.03;100.00
18022;BME280;9136;48.822;7.966;2023-09-08T09:54:42;100405.66;;;25.03;100.00
18022;BME280;9136;48.822;7.966;2023-09-08T09:57:34;100427.19;;;25.13;100.00
18022;BME280;9136;48.822;7.966;2023-09-08T10:00:26;100417.00;;;25.17;100.00
18022;BME280;9136;48.822;7.966;2023-09-08T10:03:21;100410.06;;;25.24;100.00
18022;BME280;9136;48.822;7.966;2023-09-08T10:06:14;100409.78;;;25.36;100.00
18022;BME280;9136;48.822;7.966;2023-09-08T10:09:13;100418.88;;;25.55;100.00
18022;BME280;9136;48.822;7.966;2023-09-08T10:12:04;100403.56;;;25.46;100.00
18022;BME280;9136;48.822;7.966;2023-09-08T10:15:02;100394.50;;;25.66;100.00
18022;BME280;9136;48.822;7.966;2023-09-08T10:17:55;100405.56;;;25.44;100.00
18022;BME280;9136;48.822;7.966;2023-09-08T10:20:47;100413.47;;;25.64;100.00
18022;BME280;9136;48.822;7.966;2023-09-08T10:23:54;100416.03;;;25.85;100.00
18022;BME280;9136;48.822;7.966;2023-09-08T10:26:47;100408.81;;;25.76;100.00
18022;BME280;9136;48.822;7.966;2023-09-08T10:29:39;100407.25;;;26.03;100.00
18022;BME280;9136;48.822;7.966;2023-09-08T10:32:27;100407.47;;;26.38;100.00
18022;BME280;9136;48.822;7.966;2023-09-08T10:35:19;100407.22;;;26.59;100.00
18022;BME280;9136;48.822;7.966;2023-09-08T10:38:30;100402.06;;;26.75;97.30
18022;BME280;9136;48.822;7.966;2023-09-08T10:41:27;100400.34;;;26.74;93.25
18022;BME280;9136;48.822;7.966;2023-09-08T10:44:18;100400.47;;;26.73;100.00
18022;BME280;9136;48.822;7.966;2023-09-08T10:47:11;100398.31;;;27.31;100.00
18022;BME280;9136;48.822;7.966;2023-09-08T10:50:01;100393.47;;;28.40;89.62
18022;BME280;9136;48.822;7.966;2023-09-08T10:53:06;100386.91;;;30.56;57.45
18022;BME280;9136;48.822;7.966;2023-09-08T10:55:58;100401.50;;;33.48;48.72
18022;BME280;9136;48.822;7.966;2023-09-08T10:58:49;100388.38;;;35.32;44.06
18022;BME280;9136;48.822;7.966;2023-09-08T11:01:41;100387.91;;;37.50;36.65
18022;BME280;9136;48.822;7.966;2023-09-08T11:04:29;100384.53;;;38.04;35.67
18022;BME280;9136;48.822;7.966;2023-09-08T11:07:21;100380.28;;;39.00;35.39
18022;BME280;9136;48.822;7.966;2023-09-08T11:10:18;100389.91;;;40.16;33.36
18022;BME280;9136;48.822;7.966;2023-09-08T11:13:18;100381.69;;;41.25;30.62
18022;BME280;9136;48.822;7.966;2023-09-08T11:16:08;100374.56;;;41.58;30.23
18022;BME280;9136;48.822;7.966;2023-09-08T11:19:07;100369.88;;;42.47;29.01
18022;BME280;9136;48.822;7.966;2023-09-08T11:21:56;100378.41;;;40.83;30.61
18022;BME280;9136;48.822;7.966;2023-09-08T11:24:49;100376.41;;;41.35;31.86
18022;BME280;9136;48.822;7.966;2023-09-08T11:27:40;100381.81;;;42.31;28.72
18022;BME280;9136;48.822;7.966;2023-09-08T11:30:32;100363.13;;;42.38;29.62
18022;BME280;9136;48.822;7.966;2023-09-08T11:33:24;100377.88;;;43.14;27.99
18022;BME280;9136;48.822;7.966;2023-09-08T11:36:13;100367.75;;;43.89;26.52
18022;BME280;9136;48.822;7.966;2023-09-08T11:39:04;100372.34;;;44.63;26.67
18022;BME280;9136;48.822;7.966;2023-09-08T11:41:55;100361.31;;;44.78;26.24
18022;BME280;9136;48.822;7.966;2023-09-08T11:44:44;100359.41;;;43.20;27.28
18022;BME280;9136;48.822;7.966;2023-09-08T11:47:37;100357.66;;;42.65;26.98
18022;BME280;9136;48.822;7.966;2023-09-08T11:50:29;100353.94;;;42.33;27.41
18022;BME280;9136;48.822;7.966;2023-09-08T11:53:32;100334.75;;;39.22;33.17
18022;BME280;9136;48.822;7.966;2023-09-08T11:56:20;100323.88;;;38.31;33.21
18022;BME280;9136;48.822;7.966;2023-09-08T11:59:10;100326.44;;;39.11;32.41
18022;BME280;9136;48.822;7.966;2023-09-08T12:02:02;100333.53;;;39.60;31.11
18022;BME280;9136;48.822;7.966;2023-09-08T12:04:51;100336.88;;;40.09;32.19
18022;BME280;9136;48.822;7.966;2023-09-08T12:07:48;100344.09;;;41.02;30.09
18022;BME280;9136;48.822;7.966;2023-09-08T12:10:39;100338.31;;;41.04;29.75
18022;BME280;9136;48.822;7.966;2023-09-08T12:13:27;100322.25;;;39.38;32.43
18022;BME280;9136;48.822;7.966;2023-09-08T12:16:18;100319.97;;;38.57;32.65
18022;BME280;9136;48.822;7.966;2023-09-08T12:22:51;100324.88;;;39.03;33.00
18022;BME280;9136;48.822;7.966;2023-09-08T12:25:44;100317.66;;;37.80;34.14
18022;BME280;9136;48.822;7.966;2023-09-08T12:28:32;100310.56;;;36.85;35.69
18022;BME280;9136;48.822;7.966;2023-09-08T12:31:32;100313.59;;;37.65;35.57
18022;BME280;9136;48.822;7.966;2023-09-08T12:34:20;100316.16;;;38.58;33.72
18022;BME280;9136;48.822;7.966;2023-09-08T12:37:08;100320.38;;;40.09;31.18
18022;BME280;9136;48.822;7.966;2023-09-08T12:40:02;100323.13;;;41.68;28.87
18022;BME280;9136;48.822;7.966;2023-09-08T12:42:50;100324.22;;;42.62;28.02
18022;BME280;9136;48.822;7.966;2023-09-08T12:45:38;100325.13;;;43.90;27.57
18022;BME280;9136;48.822;7.966;2023-09-08T12:48:25;100324.28;;;43.85;25.43
18022;BME280;9136;48.822;7.966;2023-09-08T12:51:19;100317.03;;;42.61;27.50
18022;BME280;9136;48.822;7.966;2023-09-08T12:54:07;100307.38;;;42.41;27.93
18022;BME280;9136;48.822;7.966;2023-09-08T12:56:59;100307.31;;;40.68;29.27
18022;BME280;9136;48.822;7.966;2023-09-08T12:59:50;100304.66;;;40.73;29.46
18022;BME280;9136;48.822;7.966;2023-09-08T13:02:39;100300.44;;;40.54;29.31
18022;BME280;9136;48.822;7.966;2023-09-08T13:05:27;100310.63;;;41.78;27.75
18022;BME280;9136;48.822;7.966;2023-09-08T13:08:19;100289.50;;;40.87;27.77
18022;BME280;9136;48.822;7.966;2023-09-08T13:11:14;100298.53;;;40.71;29.14
18022;BME280;9136;48.822;7.966;2023-09-08T13:14:17;100284.72;;;41.62;28.12
18022;BME280;9136;48.822;7.966;2023-09-08T13:17:11;100287.22;;;41.80;29.62
18022;BME280;9136;48.822;7.966;2023-09-08T13:20:02;100284.28;;;40.74;28.78
18022;BME280;9136;48.822;7.966;2023-09-08T13:22:50;100276.84;;;41.20;28.61
18022;BME280;9136;48.822;7.966;2023-09-08T13:25:52;100282.88;;;42.72;27.52
18022;BME280;9136;48.822;7.966;2023-09-08T13:28:46;100291.34;;;43.46;25.23
18022;BME280;9136;48.822;7.966;2023-09-08T13:31:46;100282.91;;;41.51;27.52
18022;BME280;9136;48.822;7.966;2023-09-08T13:34:36;100272.25;;;41.09;29.29
18022;BME280;9136;48.822;7.966;2023-09-08T13:37:26;100271.34;;;41.03;27.52
18022;BME280;9136;48.822;7.966;2023-09-08T13:40:18;100271.25;;;41.49;28.79
18022;BME280;9136;48.822;7.966;2023-09-08T13:43:06;100255.66;;;39.71;31.33
18022;BME280;9136;48.822;7.966;2023-09-08T13:45:57;100253.75;;;38.83;32.66
18022;BME280;9136;48.822;7.966;2023-09-08T13:48:48;100261.88;;;37.68;33.74
18022;BME280;9136;48.822;7.966;2023-09-08T13:51:46;100251.34;;;36.01;37.06
18022;BME280;9136;48.822;7.966;2023-09-08T13:54:44;100242.69;;;36.04;40.12
18022;BME280;9136;48.822;7.966;2023-09-08T13:57:35;100245.19;;;36.12;39.94
18022;BME280;9136;48.822;7.966;2023-09-08T14:00:28;100234.22;;;36.63;37.76
18022;BME280;9136;48.822;7.966;2023-09-08T14:03:18;100247.88;;;36.70;39.94
18022;BME280;9136;48.822;7.966;2023-09-08T14:06:07;100233.72;;;36.42;37.28
18022;BME280;9136;48.822;7.966;2023-09-08T14:08:55;100233.28;;;36.45;38.75
18022;BME280;9136;48.822;7.966;2023-09-08T14:11:45;100231.84;;;36.35;39.68
18022;BME280;9136;48.822;7.966;2023-09-08T14:14:33;100239.75;;;35.99;39.22
18022;BME280;9136;48.822;7.966;2023-09-08T14:17:22;100233.72;;;35.64;38.55
18022;BME280;9136;48.822;7.966;2023-09-08T14:20:32;100226.66;;;34.42;42.78
18022;BME280;9136;48.822;7.966;2023-09-08T14:23:24;100223.88;;;34.29;44.23
18022;BME280;9136;48.822;7.966;2023-09-08T14:26:14;100220.22;;;34.08;46.60
18022;BME280;9136;48.822;7.966;2023-09-08T14:29:05;100222.78;;;34.17;45.48
18022;BME280;9136;48.822;7.966;2023-09-08T14:31:56;100211.25;;;34.21;43.77
18022;BME280;9136;48.822;7.966;2023-09-08T14:34:43;100222.19;;;34.28;46.76
18022;BME280;9136;48.822;7.966;2023-09-08T14:37:31;100216.03;;;34.12;47.07
18022;BME280;9136;48.822;7.966;2023-09-08T14:40:22;100215.53;;;33.89;49.33
18022;BME280;9136;48.822;7.966;2023-09-08T14:43:11;100206.75;;;33.59;52.43
18022;BME280;9136;48.822;7.966;2023-09-08T14:45:59;100203.56;;;33.55;48.33
18022;BME280;9136;48.822;7.966;2023-09-08T14:48:52;100196.88;;;33.30;45.95
18022;BME280;9136;48.822;7.966;2023-09-08T14:51:41;100205.19;;;33.00;45.78
18022;BME280;9136;48.822;7.966;2023-09-08T14:54:31;100207.41;;;32.90;44.13
18022;BME280;9136;48.822;7.966;2023-09-08T14:57:20;100210.38;;;32.74;45.62
18022;BME280;9136;48.822;7.966;2023-09-08T15:00:10;100219.56;;;32.52;46.69
18022;BME280;9136;48.822;7.966;2023-09-08T15:03:00;100205.63;;;32.40;44.57
18022;BME280;9136;48.822;7.966;2023-09-08T15:05:52;100207.31;;;32.41;48.17